sensor_id;sensor_type;location;lat;lon;timestamp;pressure;altitude;pressure_sealevel;temperature;humidity
32083;BME280;18597;48.328;7.932;2022-09-13T00:01:17;99077.09;;;12.89;100.00
32083;BME280;18597;48.328;7.932;2022-09-13T00:03:43;99085.81;;;12.91;100.00
32083;BME280;18597;48.328;7.932;2022-09-13T00:06:13;99082.88;;;13.02;100.00
32083;BME280;18597;48.328;7.932;2022-09-13T00:08:40;99076.69;;;13.10;100.00
32083;BME280;18597;48.328;7.932;2022-09-13T00:11:11;99088.72;;;13.05;100.00
32083;BME280;18597;48.328;7.932;2022-09-13T00:13:38;99084.22;;;13.06;100.00
32083;BME280;18597;48.328;7.932;2022-09-13T00:16:12;99080.16;;;12.94;100.00
32083;BME280;18597;48.328;7.932;2022-09-13T00:18:38;99079.19;;;12.77;100.00
32083;BME280;18597;48.328;7.932;2022-09-13T00:21:13;99072.47;;;12.73;100.00
32083;BME280;18597;48.328;7.932;2022-09-13T00:23:45;99071.34;;;12.84;100.00
32083;BME280;18597;48.328;7.932;2022-09-13T00:26:15;99082.81;;;12.68;100.00
32083;BME280;18597;48.328;7.932;2022-09-13T00:28:43;99077.50;;;12.76;100.00
32083;BME280;18597;48.328;7.932;2022-09-13T00:31:11;99084.19;;;12.72;100.00
32083;BME280;18597;48.328;7.932;2022-09-13T00:33:37;99077.31;;;12.69;100.00
32083;BME280;18597;48.328;7.932;2022-09-13T00:36:07;99075.84;;;12.49;100.00
32083;BME280;18597;48.328;7.932;2022-09-13T00:38:36;99074.47;;;12.45;100.00
32083;BME280;18597;48.328;7.932;2022-09-13T00:41:05;99076.41;;;12.61;100.00
32083;BME280;18597;48.328;7.932;2022-09-13T00:46:45;99083.72;;;12.50;100.00
32083;BME280;18597;48.328;7.932;2022-09-13T00:49:27;99076.63;;;12.41;100.00
32083;BME280;18597;48.328;7.932;2022-09-13T00:52:00;99081.22;;;12.49;100.00
32083;BME280;18597;48.328;7.932;2022-09-13T00:54:37;99076.91;;;12.56;100.00
32083;BME280;18597;48.328;7.932;2022-09-13T00:57:06;99086.19;;;12.44;100.00
32083;BME280;18597;48.328;7.932;2022-09-13T00:59:40;99089.91;;;12.25;100.00
32083;BME280;18597;48.328;7.932;2022-09-13T01:02:07;99089.22;;;12.05;100.00
32083;BME280;18597;48.328;7.932;2022-09-13T01:04:34;99088.59;;;12.11;100.00
32083;BME280;18597;48.328;7.932;2022-09-13T01:07:07;99095.72;;;12.03;100.00
32083;BME280;18597;48.328;7.932;2022-09-13T01:09:38;99093.34;;;11.82;100.00
32083;BME280;18597;48.328;7.932;2022-09-13T01:14:59;99080.03;;;11.90;100.00
32083;BME280;18597;48.328;7.932;2022-09-13T01:17:27;99087.16;;;11.81;100.00
32083;BME280;18597;48.328;7.932;2022-09-13T01:19:54;99083.66;;;11.71;100.00
32083;BME280;18597;48.328;7.932;2022-09-13T01:31:21;99086.22;;;12.26;100.00
32083;BME280;18597;48.328;7.932;2022-09-13T01:37:02;99092.59;;;11.89;100.00
32083;BME280;18597;48.328;7.932;2022-09-13T01:42:59;99104.06;;;11.82;100.00
32083;BME280;18597;48.328;7.932;2022-09-13T01:46:08;99110.97;;;11.57;100.00
32083;BME280;18597;48.328;7.932;2022-09-13T01:49:07;99120.75;;;11.38;100.00
32083;BME280;18597;48.328;7.932;2022-09-13T01:51:46;99121.19;;;11.61;100.00
32083;BME280;18597;48.328;7.932;2022-09-13T01:54:56;99128.63;;;11.40;100.00
32083;BME280;18597;48.328;7.932;2022-09-13T01:57:27;99140.88;;;11.43;100.00
32083;BME280;18597;48.328;7.932;2022-09-13T02:00:03;99142.34;;;11.55;100.00
32083;BME280;18597;48.328;7.932;2022-09-13T02:02:49;99137.63;;;11.39;100.00
32083;BME280;18597;48.328;7.932;2022-09-13T02:05:29;99141.34;;;11.56;100.00
32083;BME280;18597;48.328;7.932;2022-09-13T02:08:06;99135.13;;;11.65;100.00
32083;BME280;18597;48.328;7.932;2022-09-13T02:10:41;99130.84;;;11.72;100.00
32083;BME280;18597;48.328;7.932;2022-09-13T02:13:16;99119.16;;;11.73;100.00
32083;BME280;18597;48.328;7.932;2022-09-13T02:15:47;99111.50;;;11.78;100.00
32083;BME280;18597;48.328;7.932;2022-09-13T02:18:24;99112.97;;;11.73;100.00
32083;BME280;18597;48.328;7.932;2022-09-13T02:20:52;99111.81;;;11.75;100.00
32083;BME280;18597;48.328;7.932;2022-09-13T02:23:29;99107.47;;;11.74;100.00
32083;BME280;18597;48.328;7.932;2022-09-13T02:25:58;99100.72;;;11.70;100.00
32083;BME280;18597;48.328;7.932;2022-09-13T02:28:35;99103.63;;;11.77;100.00
32083;BME280;18597;48.328;7.932;2022-09-13T02:31:04;99109.56;;;11.80;100.00
32083;BME280;18597;48.328;7.932;2022-09-13T02:33:36;99108.56;;;11.81;100.00
32083;BME280;18597;48.328;7.932;2022-09-13T02:36:09;99100.53;;;11.99;100.00
32083;BME280;18597;48.328;7.932;2022-09-13T02:38:49;99112.09;;;12.00;100.00
32083;BME280;18597;48.328;7.932;2022-09-13T02:50:32;99101.13;;;11.93;100.00
32083;BME280;18597;48.328;7.932;2022-09-13T02:53:52;99091.97;;;11.96;100.00
32083;BME280;18597;48.328;7.932;2022-09-13T02:56:42;99092.44;;;11.91;100.00
32083;BME280;18597;48.328;7.932;2022-09-13T02:59:18;99089.41;;;11.76;100.00
32083;BME280;18597;48.328;7.932;2022-09-13T03:04:20;99080.22;;;11.79;100.00
32083;BME280;18597;48.328;7.932;2022-09-13T03:06:48;99071.22;;;11.80;100.00
32083;BME280;18597;48.328;7.932;2022-09-13T03:09:15;99076.53;;;11.89;100.00
32083;BME280;18597;48.328;7.932;2022-09-13T03:31:44;99057.84;;;11.80;100.00
32083;BME280;18597;48.328;7.932;2022-09-13T03:37:07;99067.72;;;11.79;100.00
32083;BME280;18597;48.328;7.932;2022-09-13T03:39:43;99067.72;;;11.79;100.00
32083;BME280;18597;48.328;7.932;2022-09-13T03:42:20;99063.06;;;11.81;100.00
32083;BME280;18597;48.328;7.932;2022-09-13T03:44:49;99058.19;;;11.94;100.00
32083;BME280;18597;48.328;7.932;2022-09-13T03:47:18;99053.91;;;12.02;100.00
32083;BME280;18597;48.328;7.932;2022-09-13T03:49:46;99064.06;;;11.98;100.00
32083;BME280;18597;48.328;7.932;2022-09-13T03:52:12;99066.91;;;11.97;100.00
32083;BME280;18597;48.328;7.932;2022-09-13T03:54:38;99068.88;;;11.94;100.00
32083;BME280;18597;48.328;7.932;2022-09-13T03:57:18;99061.00;;;11.93;100.00
32083;BME280;18597;48.328;7.932;2022-09-13T03:59:51;99057.56;;;11.83;100.00
32083;BME280;18597;48.328;7.932;2022-09-13T04:02:18;99061.06;;;11.83;100.00
32083;BME280;18597;48.328;7.932;2022-09-13T04:04:45;99057.56;;;11.83;100.00
32083;BME280;18597;48.328;7.932;2022-09-13T04:07:15;99052.75;;;11.86;100.00
32083;BME280;18597;48.328;7.932;2022-09-13T04:09:41;99058.41;;;11.83;100.00
32083;BME280;18597;48.328;7.932;2022-09-13T04:12:07;99059.28;;;11.74;100.00
32083;BME280;18597;48.328;7.932;2022-09-13T04:14:34;99066.59;;;11.82;100.00
32083;BME280;18597;48.328;7.932;2022-09-13T04:17:00;99057.00;;;11.79;100.00
32083;BME280;18597;48.328;7.932;2022-09-13T04:19:26;99067.47;;;11.73;100.00
32083;BME280;18597;48.328;7.932;2022-09-13T04:21:54;99068.84;;;11.77;100.00
32083;BME280;18597;48.328;7.932;2022-09-13T04:24:26;99066.97;;;11.87;100.00
32083;BME280;18597;48.328;7.932;2022-09-13T04:26:52;99067.56;;;11.99;100.00
32083;BME280;18597;48.328;7.932;2022-09-13T04:29:20;99068.56;;;11.98;100.00
32083;BME280;18597;48.328;7.932;2022-09-13T04:31:47;99070.19;;;11.90;100.00
32083;BME280;18597;48.328;7.932;2022-09-13T04:34:14;99075.13;;;11.85;100.00
32083;BME280;18597;48.328;7.932;2022-09-13T04:36:40;99092.75;;;11.78;100.00
32083;BME280;18597;48.328;7.932;2022-09-13T04:39:06;99084.50;;;11.54;100.00
32083;BME280;18597;48.328;7.932;2022-09-13T04:41:32;99082.06;;;11.60;100.00
32083;BME280;18597;48.328;7.932;2022-09-13T04:44:00;99077.47;;;11.53;100.00
32083;BME280;18597;48.328;7.932;2022-09-13T04:46:27;99092.16;;;11.49;100.00
32083;BME280;18597;48.328;7.932;2022-09-13T04:48:53;99097.19;;;11.52;100.00
32083;BME280;18597;48.328;7.932;2022-09-13T04:51:19;99094.19;;;11.55;100.00
32083;BME280;18597;48.328;7.932;2022-09-13T04:53:50;99092.81;;;11.51;100.00
32083;BME280;18597;48.328;7.932;2022-09-13T04:56:17;99087.28;;;11.34;100.00
32083;BME280;18597;48.328;7.932;2022-09-13T04:58:44;99096.41;;;11.42;100.00
32083;BME280;18597;48.328;7.932;2022-09-13T05:01:10;99099.44;;;11.47;100.00
32083;BME280;18597;48.328;7.932;2022-09-13T05:03:36;99102.28;;;11.45;100.00
32083;BME280;18597;48.328;7.932;2022-09-13T05:06:07;99099.41;;;11.56;100.00
32083;BME280;18597;48.328;7.932;2022-09-13T05:08:35;99105.03;;;11.35;100.00
32083;BME280;18597;48.328;7.932;2022-09-13T05:11:02;99111.38;;;11.34;100.00
32083;BME280;18597;48.328;7.932;2022-09-13T05:13:29;99099.09;;;11.42;100.00
32083;BME280;18597;48.328;7.932;2022-09-13T05:15:57;99101.63;;;11.61;100.00
32083;BME280;18597;48.328;7.932;2022-09-13T05:18:28;99095.91;;;11.74;100.00
32083;BME280;18597;48.328;7.932;2022-09-13T05:20:55;99085.31;;;11.82;100.00
32083;BME280;18597;48.328;7.932;2022-09-13T05:23:22;99082.03;;;11.88;100.00
32083;BME280;18597;48.328;7.932;2022-09-13T05:26:02;99076.09;;;11.94;100.00
32083;BME280;18597;48.328;7.932;2022-09-13T05:28:32;99073.69;;;11.91;100.00
32083;BME280;18597;48.328;7.932;2022-09-13T05:31:06;99068.56;;;11.98;100.00
32083;BME280;18597;48.328;7.932;2022-09-13T05:33:35;99070.09;;;12.00;100.00
32083;BME280;18597;48.328;7.932;2022-09-13T05:36:03;99071.69;;;12.11;100.00
32083;BME280;18597;48.328;7.932;2022-09-13T05:38:28;99077.28;;;12.17;100.00
32083;BME280;18597;48.328;7.932;2022-09-13T05:40:57;99081.31;;;12.39;100.00
32083;BME280;18597;48.328;7.932;2022-09-13T05:43:25;99072.09;;;12.42;100.00
32083;BME280;18597;48.328;7.932;2022-09-13T05:46:02;99063.34;;;12.58;100.00
32083;BME280;18597;48.328;7.932;2022-09-13T05:48:29;99060.44;;;12.77;100.00
32083;BME280;18597;48.328;7.932;2022-09-13T05:50:56;99057.44;;;12.80;100.00
32083;BME280;18597;48.328;7.932;2022-09-13T05:53:22;99056.31;;;12.91;100.00
32083;BME280;18597;48.328;7.932;2022-09-13T05:55:47;99055.88;;;13.03;100.00
32083;BME280;18597;48.328;7.932;2022-09-13T05:58:13;99059.03;;;12.99;100.00
32083;BME280;18597;48.328;7.932;2022-09-13T06:00:39;99062.97;;;13.13;100.00
32083;BME280;18597;48.328;7.932;2022-09-13T06:03:05;99055.41;;;13.50;100.00
32083;BME280;18597;48.328;7.932;2022-09-13T06:05:30;99067.03;;;15.29;100.00
32083;BME280;18597;48.328;7.932;2022-09-13T06:07:56;99068.16;;;18.89;80.77
32083;BME280;18597;48.328;7.932;2022-09-13T06:10:22;99069.38;;;20.43;63.69
32083;BME280;18597;48.328;7.932;2022-09-13T06:12:50;99069.94;;;22.95;53.96
32083;BME280;18597;48.328;7.932;2022-09-13T06:15:16;99066.03;;;25.65;46.91
32083;BME280;18597;48.328;7.932;2022-09-13T06:17:42;99064.06;;;27.79;40.98
32083;BME280;18597;48.328;7.932;2022-09-13T06:20:08;99054.63;;;28.83;38.48
32083;BME280;18597;48.328;7.932;2022-09-13T06:22:34;99053.00;;;30.02;36.17
32083;BME280;18597;48.328;7.932;2022-09-13T06:25:00;99049.13;;;29.98;34.44
32083;BME280;18597;48.328;7.932;2022-09-13T06:27:28;99049.09;;;29.78;35.50
32083;BME280;18597;48.328;7.932;2022-09-13T06:29:55;99050.25;;;28.87;36.71
32083;BME280;18597;48.328;7.932;2022-09-13T06:32:21;99046.25;;;28.09;36.78
32083;BME280;18597;48.328;7.932;2022-09-13T06:34:47;99045.09;;;27.56;38.49
32083;BME280;18597;48.328;7.932;2022-09-13T06:37:13;99042.81;;;27.48;38.37
32083;BME280;18597;48.328;7.932;2022-09-13T06:39:39;99044.53;;;26.43;39.33
32083;BME280;18597;48.328;7.932;2022-09-13T06:42:05;99050.94;;;26.48;40.65
32083;BME280;18597;48.328;7.932;2022-09-13T06:44:31;99049.06;;;27.21;38.70
32083;BME280;18597;48.328;7.932;2022-09-13T06:46:57;99051.75;;;27.38;38.01
32083;BME280;18597;48.328;7.932;2022-09-13T06:49:23;99048.47;;;27.19;39.83
32083;BME280;18597;48.328;7.932;2022-09-13T06:51:49;99035.06;;;28.42;36.88
32083;BME280;18597;48.328;7.932;2022-09-13T06:54:15;99023.31;;;28.89;36.37
32083;BME280;18597;48.328;7.932;2022-09-13T06:56:40;99022.22;;;30.21;33.60
32083;BME280;18597;48.328;7.932;2022-09-13T06:59:09;99016.03;;;28.04;36.65
32083;BME280;18597;48.328;7.932;2022-09-13T07:01:38;99017.06;;;27.98;37.25
32083;BME280;18597;48.328;7.932;2022-09-13T07:04:08;99005.59;;;28.06;36.92
32083;BME280;18597;48.328;7.932;2022-09-13T07:06:37;99002.09;;;30.86;32.90
32083;BME280;18597;48.328;7.932;2022-09-13T07:09:06;99003.03;;;31.96;30.92
32083;BME280;18597;48.328;7.932;2022-09-13T07:11:36;99001.66;;;31.44;31.88
32083;BME280;18597;48.328;7.932;2022-09-13T07:14:02;98995.22;;;27.59;37.44
32083;BME280;18597;48.328;7.932;2022-09-13T07:16:31;98999.00;;;25.23;42.81
32083;BME280;18597;48.328;7.932;2022-09-13T07:19:00;99001.25;;;23.30;47.00
32083;BME280;18597;48.328;7.932;2022-09-13T07:21:28;98989.03;;;22.34;51.41
32083;BME280;18597;48.328;7.932;2022-09-13T07:23:55;98992.25;;;21.10;57.08
32083;BME280;18597;48.328;7.932;2022-09-13T07:26:22;98987.09;;;20.82;59.56
32083;BME280;18597;48.328;7.932;2022-09-13T07:28:52;98991.72;;;20.02;63.80
32083;BME280;18597;48.328;7.932;2022-09-13T07:31:21;98984.84;;;19.73;67.34
32083;BME280;18597;48.328;7.932;2022-09-13T07:33:54;98982.16;;;20.53;64.40
32083;BME280;18597;48.328;7.932;2022-09-13T07:36:21;98975.72;;;21.18;61.57
32083;BME280;18597;48.328;7.932;2022-09-13T07:38:46;98977.16;;;21.21;60.26
32083;BME280;18597;48.328;7.932;2022-09-13T07:41:17;98974.78;;;20.86;62.71
32083;BME280;18597;48.328;7.932;2022-09-13T07:43:43;98976.03;;;20.84;63.47
32083;BME280;18597;48.328;7.932;2022-09-13T07:46:14;98982.22;;;21.94;58.77
32083;BME280;18597;48.328;7.932;2022-09-13T07:48:42;98990.03;;;23.20;54.41
32083;BME280;18597;48.328;7.932;2022-09-13T07:51:13;98980.50;;;24.78;48.46
32083;BME280;18597;48.328;7.932;2022-09-13T07:53:41;98979.56;;;25.36;46.96
32083;BME280;18597;48.328;7.932;2022-09-13T07:56:13;98970.88;;;25.96;45.40
32083;BME280;18597;48.328;7.932;2022-09-13T07:58:42;98978.47;;;26.95;42.04
32083;BME280;18597;48.328;7.932;2022-09-13T08:01:16;98971.50;;;28.71;39.24
32083;BME280;18597;48.328;7.932;2022-09-13T08:03:44;98960.19;;;29.05;37.72
32083;BME280;18597;48.328;7.932;2022-09-13T08:06:14;98963.06;;;29.35;37.75
32083;BME280;18597;48.328;7.932;2022-09-13T08:08:40;98953.34;;;30.46;35.93
32083;BME280;18597;48.328;7.932;2022-09-13T08:11:06;98945.47;;;31.14;35.33
32083;BME280;18597;48.328;7.932;2022-09-13T08:13:32;98937.63;;;32.54;33.90
32083;BME280;18597;48.328;7.932;2022-09-13T08:16:06;98940.38;;;33.69;30.16
32083;BME280;18597;48.328;7.932;2022-09-13T08:18:33;98942.06;;;35.00;29.27
32083;BME280;18597;48.328;7.932;2022-09-13T08:21:00;98944.53;;;35.16;27.39
32083;BME280;18597;48.328;7.932;2022-09-13T08:23:27;98923.94;;;32.39;30.67
32083;BME280;18597;48.328;7.932;2022-09-13T08:25:53;98915.28;;;28.89;36.59
32083;BME280;18597;48.328;7.932;2022-09-13T08:28:20;98920.59;;;27.35;40.77
32083;BME280;18597;48.328;7.932;2022-09-13T08:30:47;98913.94;;;25.93;42.91
32083;BME280;18597;48.328;7.932;2022-09-13T08:33:13;98921.00;;;24.09;48.26
32083;BME280;18597;48.328;7.932;2022-09-13T08:35:40;98912.97;;;23.31;51.77
32083;BME280;18597;48.328;7.932;2022-09-13T08:38:06;98913.88;;;23.25;52.78
32083;BME280;18597;48.328;7.932;2022-09-13T08:40:40;98910.13;;;23.08;54.03
32083;BME280;18597;48.328;7.932;2022-09-13T08:46:05;98923.00;;;23.01;55.51
32083;BME280;18597;48.328;7.932;2022-09-13T08:48:38;98935.63;;;23.13;54.94
32083;BME280;18597;48.328;7.932;2022-09-13T08:51:21;98935.69;;;23.25;55.04
32083;BME280;18597;48.328;7.932;2022-09-13T08:53:49;98944.44;;;23.27;57.07
32083;BME280;18597;48.328;7.932;2022-09-13T08:56:22;98937.25;;;23.33;58.96
32083;BME280;18597;48.328;7.932;2022-09-13T09:02:30;98952.50;;;23.52;59.53
32083;BME280;18597;48.328;7.932;2022-09-13T09:05:22;98949.91;;;23.57;59.73
32083;BME280;18597;48.328;7.932;2022-09-13T09:08:19;98955.34;;;23.57;59.15
32083;BME280;18597;48.328;7.932;2022-09-13T09:10:48;98953.59;;;23.51;59.71
32083;BME280;18597;48.328;7.932;2022-09-13T09:13:31;98957.72;;;23.53;61.34
32083;BME280;18597;48.328;7.932;2022-09-13T09:16:27;98966.81;;;23.47;58.89
32083;BME280;18597;48.328;7.932;2022-09-13T09:19:03;98966.69;;;23.61;59.65
32083;BME280;18597;48.328;7.932;2022-09-13T09:21:30;98968.34;;;23.62;60.26
32083;BME280;18597;48.328;7.932;2022-09-13T09:24:00;98971.22;;;23.67;59.91
32083;BME280;18597;48.328;7.932;2022-09-13T09:26:29;98972.03;;;23.67;60.32
32083;BME280;18597;48.328;7.932;2022-09-13T09:29:18;98979.41;;;23.78;59.55
32083;BME280;18597;48.328;7.932;2022-09-13T09:37:23;98986.78;;;23.78;59.25
32083;BME280;18597;48.328;7.932;2022-09-13T09:39:52;98987.56;;;23.67;59.24
32083;BME280;18597;48.328;7.932;2022-09-13T09:42:25;98971.31;;;23.72;58.85
32083;BME280;18597;48.328;7.932;2022-09-13T09:44:59;98965.97;;;23.65;58.92
32083;BME280;18597;48.328;7.932;2022-09-13T09:47:30;98957.88;;;23.59;59.24
32083;BME280;18597;48.328;7.932;2022-09-13T09:50:12;98951.28;;;23.66;58.03
32083;BME280;18597;48.328;7.932;2022-09-13T09:53:20;98948.44;;;23.61;58.08
32083;BME280;18597;48.328;7.932;2022-09-13T09:56:23;98949.91;;;23.87;56.56
32083;BME280;18597;48.328;7.932;2022-09-13T09:58:51;98946.06;;;24.18;55.70
32083;BME280;18597;48.328;7.932;2022-09-13T10:01:30;98932.31;;;24.72;54.15
32083;BME280;18597;48.328;7.932;2022-09-13T10:06:41;98929.25;;;25.77;49.76
32083;BME280;18597;48.328;7.932;2022-09-13T10:09:15;98938.91;;;26.47;47.54
32083;BME280;18597;48.328;7.932;2022-09-13T10:11:52;98938.16;;;27.12;45.59
32083;BME280;18597;48.328;7.932;2022-09-13T10:14:40;98927.56;;;27.70;45.13
32083;BME280;18597;48.328;7.932;2022-09-13T10:17:27;98923.22;;;28.06;44.09
32083;BME280;18597;48.328;7.932;2022-09-13T10:19:58;98922.16;;;28.44;44.21
32083;BME280;18597;48.328;7.932;2022-09-13T10:22:28;98918.19;;;28.67;42.80
32083;BME280;18597;48.328;7.932;2022-09-13T10:24:54;98906.31;;;28.61;42.10
32083;BME280;18597;48.328;7.932;2022-09-13T10:29:58;98918.50;;;28.33;43.59
32083;BME280;18597;48.328;7.932;2022-09-13T10:32:27;98910.31;;;28.38;43.09
32083;BME280;18597;48.328;7.932;2022-09-13T10:34:54;98897.94;;;28.41;43.50
32083;BME280;18597;48.328;7.932;2022-09-13T10:37:27;98896.03;;;28.36;43.09
32083;BME280;18597;48.328;7.932;2022-09-13T10:40:03;98889.84;;;28.24;43.43
32083;BME280;18597;48.328;7.932;2022-09-13T10:42:31;98883.25;;;28.25;44.43
32083;BME280;18597;48.328;7.932;2022-09-13T10:45:02;98888.34;;;28.38;44.18
32083;BME280;18597;48.328;7.932;2022-09-13T10:47:38;98890.81;;;28.40;43.75
32083;BME280;18597;48.328;7.932;2022-09-13T10:50:27;98886.63;;;28.32;44.87
32083;BME280;18597;48.328;7.932;2022-09-13T10:52:57;98878.59;;;28.20;44.06
32083;BME280;18597;48.328;7.932;2022-09-13T11:01:27;98866.19;;;27.81;45.33
32083;BME280;18597;48.328;7.932;2022-09-13T11:07:47;98868.97;;;27.86;44.98
32083;BME280;18597;48.328;7.932;2022-09-13T11:23:06;98844.19;;;28.50;45.78
32083;BME280;18597;48.328;7.932;2022-09-13T11:26:42;98840.34;;;28.51;44.98
32083;BME280;18597;48.328;7.932;2022-09-13T11:35:42;98837.00;;;28.44;44.46
32083;BME280;18597;48.328;7.932;2022-09-13T11:38:34;98834.03;;;28.51;45.86
32083;BME280;18597;48.328;7.932;2022-09-13T11:41:42;98828.88;;;28.64;46.36
32083;BME280;18597;48.328;7.932;2022-09-13T11:50:41;98816.81;;;28.81;43.80
32083;BME280;18597;48.328;7.932;2022-09-13T11:56:36;98814.69;;;28.93;43.97
32083;BME280;18597;48.328;7.932;2022-09-13T12:02:31;98810.00;;;28.93;43.21
32083;BME280;18597;48.328;7.932;2022-09-13T12:05:11;98805.59;;;28.87;43.93
32083;BME280;18597;48.328;7.932;2022-09-13T12:07:49;98803.63;;;28.83;44.77
32083;BME280;18597;48.328;7.932;2022-09-13T12:10:28;98809.09;;;28.78;45.42
32083;BME280;18597;48.328;7.932;2022-09-13T12:12:56;98818.16;;;28.68;46.02
32083;BME280;18597;48.328;7.932;2022-09-13T12:15:35;98803.03;;;28.70;44.18
32083;BME280;18597;48.328;7.932;2022-09-13T12:18:13;98816.47;;;28.62;42.37
32083;BME280;18597;48.328;7.932;2022-09-13T12:20:50;98817.03;;;28.64;41.52
32083;BME280;18597;48.328;7.932;2022-09-13T12:23:32;98811.03;;;28.72;40.61
32083;BME280;18597;48.328;7.932;2022-09-13T12:26:23;98811.31;;;28.86;40.70
32083;BME280;18597;48.328;7.932;2022-09-13T12:28:57;98814.97;;;28.91;40.01
32083;BME280;18597;48.328;7.932;2022-09-13T12:31:28;98800.38;;;28.91;40.82
32083;BME280;18597;48.328;7.932;2022-09-13T12:33:54;98810.63;;;29.11;41.07
32083;BME280;18597;48.328;7.932;2022-09-13T12:37:04;98815.84;;;29.22;41.57
32083;BME280;18597;48.328;7.932;2022-09-13T12:49:56;98802.59;;;30.42;39.91
32083;BME280;18597;48.328;7.932;2022-09-13T13:02:42;98786.44;;;31.68;40.23
32083;BME280;18597;48.328;7.932;2022-09-13T13:05:32;98783.63;;;32.02;40.21
32083;BME280;18597;48.328;7.932;2022-09-13T13:11:15;98783.69;;;32.50;37.62
32083;BME280;18597;48.328;7.932;2022-09-13T13:13:56;98778.56;;;32.38;38.17
32083;BME280;18597;48.328;7.932;2022-09-13T13:16:38;98772.88;;;32.24;37.78
32083;BME280;18597;48.328;7.932;2022-09-13T13:19:31;98775.47;;;32.16;37.43
32083;BME280;18597;48.328;7.932;2022-09-13T13:25:35;98762.06;;;32.04;34.82
32083;BME280;18597;48.328;7.932;2022-09-13T13:39:46;98746.94;;;31.38;39.20
32083;BME280;18597;48.328;7.932;2022-09-13T13:42:30;98740.88;;;31.36;39.59
32083;BME280;18597;48.328;7.932;2022-09-13T13:50:18;98735.84;;;31.43;37.30
32083;BME280;18597;48.328;7.932;2022-09-13T13:55:46;98730.56;;;31.47;36.51
32083;BME280;18597;48.328;7.932;2022-09-13T13:58:54;98720.13;;;31.44;37.56
32083;BME280;18597;48.328;7.932;2022-09-13T14:01:27;98707.59;;;31.23;38.02
32083;BME280;18597;48.328;7.932;2022-09-13T14:04:46;98698.97;;;30.95;39.60
32083;BME280;18597;48.328;7.932;2022-09-13T14:07:50;98689.13;;;30.84;39.61
32083;BME280;18597;48.328;7.932;2022-09-13T14:10:48;98691.31;;;30.82;40.36
32083;BME280;18597;48.328;7.932;2022-09-13T14:13:43;98689.75;;;30.71;42.36
32083;BME280;18597;48.328;7.932;2022-09-13T14:19:41;98673.53;;;30.59;42.90
32083;BME280;18597;48.328;7.932;2022-09-13T14:24:50;98660.63;;;30.54;42.74
32083;BME280;18597;48.328;7.932;2022-09-13T14:27:22;98662.00;;;30.52;42.90
32083;BME280;18597;48.328;7.932;2022-09-13T14:29:55;98651.31;;;30.40;42.30
32083;BME280;18597;48.328;7.932;2022-09-13T14:32:26;98654.69;;;30.32;42.82
32083;BME280;18597;48.328;7.932;2022-09-13T14:35:03;98652.47;;;30.34;43.21
32083;BME280;18597;48.328;7.932;2022-09-13T14:37:35;98650.53;;;30.34;44.26
32083;BME280;18597;48.328;7.932;2022-09-13T14:40:23;98643.59;;;30.37;44.56
32083;BME280;18597;48.328;7.932;2022-09-13T14:42:52;98639.25;;;30.31;44.46
32083;BME280;18597;48.328;7.932;2022-09-13T14:45:25;98646.66;;;30.35;44.67
32083;BME280;18597;48.328;7.932;2022-09-13T14:48:06;98630.94;;;30.36;44.48
32083;BME280;18597;48.328;7.932;2022-09-13T14:50:41;98620.97;;;30.45;43.92
32083;BME280;18597;48.328;7.932;2022-09-13T14:53:17;98617.13;;;30.46;43.52
32083;BME280;18597;48.328;7.932;2022-09-13T14:56:06;98617.13;;;30.46;43.22
32083;BME280;18597;48.328;7.932;2022-09-13T14:58:48;98611.66;;;30.36;44.47
32083;BME280;18597;48.328;7.932;2022-09-13T15:01:25;98615.84;;;30.28;44.59
32083;BME280;18597;48.328;7.932;2022-09-13T15:03:56;98612.34;;;30.18;45.69
32083;BME280;18597;48.328;7.932;2022-09-13T15:06:31;98611.81;;;30.05;45.73
32083;BME280;18597;48.328;7.932;2022-09-13T15:09:25;98610.22;;;29.89;46.93
32083;BME280;18597;48.328;7.932;2022-09-13T15:11:57;98602.56;;;29.81;45.92
32083;BME280;18597;48.328;7.932;2022-09-13T15:14:31;98598.69;;;29.77;46.66
32083;BME280;18597;48.328;7.932;2022-09-13T15:17:07;98591.31;;;29.72;47.11
32083;BME280;18597;48.328;7.932;2022-09-13T15:19:41;98593.25;;;29.72;48.32
32083;BME280;18597;48.328;7.932;2022-09-13T15:22:29;98590.22;;;29.68;48.67
32083;BME280;18597;48.328;7.932;2022-09-13T15:24:58;98586.69;;;29.58;49.03
32083;BME280;18597;48.328;7.932;2022-09-13T15:27:29;98593.00;;;29.53;49.55
32083;BME280;18597;48.328;7.932;2022-09-13T15:30:00;98603.22;;;29.42;49.77
32083;BME280;18597;48.328;7.932;2022-09-13T15:32:41;98586.47;;;29.18;50.41
32083;BME280;18597;48.328;7.932;2022-09-13T15:35:29;98587.88;;;29.06;50.67
32083;BME280;18597;48.328;7.932;2022-09-13T15:38:13;98582.13;;;29.02;51.91
32083;BME280;18597;48.328;7.932;2022-09-13T15:40:44;98587.88;;;29.06;52.17
32083;BME280;18597;48.328;7.932;2022-09-13T15:43:10;98588.41;;;29.13;51.88
32083;BME280;18597;48.328;7.932;2022-09-13T15:45:36;98590.31;;;29.22;50.07
32083;BME280;18597;48.328;7.932;2022-09-13T15:48:02;98608.75;;;29.27;49.07
32083;BME280;18597;48.328;7.932;2022-09-13T15:50:31;98616.97;;;29.32;48.12
32083;BME280;18597;48.328;7.932;2022-09-13T15:52:59;98620.25;;;29.39;49.04
32083;BME280;18597;48.328;7.932;2022-09-13T15:55:26;98619.44;;;29.44;48.47
32083;BME280;18597;48.328;7.932;2022-09-13T15:57:53;98607.88;;;29.57;47.57
32083;BME280;18597;48.328;7.932;2022-09-13T16:00:24;98588.28;;;29.74;46.46
32083;BME280;18597;48.328;7.932;2022-09-13T16:02:50;98574.97;;;29.91;45.32
32083;BME280;18597;48.328;7.932;2022-09-13T16:05:17;98571.09;;;29.97;44.47
32083;BME280;18597;48.328;7.932;2022-09-13T16:07:44;98575.56;;;29.83;46.58
32083;BME280;18597;48.328;7.932;2022-09-13T16:10:15;98574.53;;;29.69;46.25
32083;BME280;18597;48.328;7.932;2022-09-13T16:12:42;98573.19;;;29.46;50.74
32083;BME280;18597;48.328;7.932;2022-09-13T16:15:09;98576.03;;;29.05;51.85